Time;durP1;ratioP1;P1;durP2;ratioP2;P2;SDS_P1;SDS_P2;PMS_P1;PMS_P2;Temp;Humidity;BMP_temperature;BMP_pressure;BME280_temperature;BME280_humidity;BME280_pressure;Samples;Min_cycle;Max_cycle;Signal;HPM_P1;HPM_P2
2022/10/04 00:02:18;;;;;;;6.82;2.60;;;;;;;10.62;91.82;100978.78;5014112;28;20233;-83
2022/10/04 00:04:56;;;;;;;4.38;1.90;;;;;;;10.30;93.58;100963.59;5014513;28;20088;-83
2022/10/04 00:07:33;;;;;;;5.75;1.92;;;;;;;10.30;93.60;100961.66;5014714;28;20025;-83
2022/10/04 00:10:04;;;;;;;5.10;1.90;;;;;;;10.15;94.58;100962.03;4996807;28;20256;-82
2022/10/04 00:12:36;;;;;;;10.25;3.17;;;;;;;10.16;95.17;100956.25;5014593;28;20022;-83
2022/10/04 00:15:06;;;;;;;5.10;2.05;;;;;;;10.22;94.68;100957.75;4996707;28;20026;-83
2022/10/04 00:17:34;;;;;;;6.90;2.70;;;;;;;10.29;94.28;100953.81;4996583;28;20030;-83
2022/10/04 00:20:01;;;;;;;6.50;1.98;;;;;;;10.19;95.43;100949.38;5014047;28;20042;-82
2022/10/04 00:22:29;;;;;;;8.93;2.33;;;;;;;10.19;94.95;100952.13;4996493;28;20033;-83
2022/10/04 00:25:06;;;;;;;5.18;2.13;;;;;;;10.19;95.60;100949.38;4995807;28;20132;-83
2022/10/04 00:27:33;;;;;;;5.50;2.03;;;;;;;10.58;94.15;100942.38;4996428;28;20026;-83
2022/10/04 00:30:04;;;;;;;9.98;2.65;;;;;;;10.79;92.26;100943.44;4996263;28;20032;-83
2022/10/04 00:32:39;;;;;;;6.22;2.50;;;;;;;10.78;91.79;100936.41;4996391;28;20109;-82
2022/10/04 00:35:25;;;;;;;6.90;2.28;;;;;;;10.64;92.33;100924.81;5013827;28;20101;-83
2022/10/04 00:38:06;;;;;;;5.28;2.30;;;;;;;10.54;92.19;100926.69;5013688;28;20033;-82
2022/10/04 00:40:41;;;;;;;5.80;2.00;;;;;;;10.48;93.15;100922.50;5013742;28;20025;-82
2022/10/04 00:43:21;;;;;;;6.63;2.15;;;;;;;10.39;93.32;100920.84;5013737;28;20026;-82
2022/10/04 00:46:03;;;;;;;5.57;2.58;;;;;;;10.29;93.44;100915.69;4996052;28;20019;-81
2022/10/04 00:48:41;;;;;;;6.20;2.15;;;;;;;10.14;94.85;100920.41;5013509;28;20040;-83
2022/10/04 00:51:23;;;;;;;8.93;2.70;;;;;;;10.07;95.40;100930.09;5013990;28;20036;-82
2022/10/04 00:53:57;;;;;;;5.55;2.42;;;;;;;10.36;93.91;100927.72;5013530;28;20033;-82
2022/10/04 00:56:58;;;;;;;7.85;2.95;;;;;;;10.34;94.16;100924.53;5013306;28;20022;-83
2022/10/04 00:59:41;;;;;;;6.60;2.70;;;;;;;10.09;95.36;100933.34;4914910;29;20047;-83
2022/10/04 01:02:13;;;;;;;6.10;2.25;;;;;;;10.02;96.27;100935.69;4915801;29;20600;-83
2022/10/04 01:05:01;;;;;;;5.20;2.30;;;;;;;10.00;96.29;100935.19;4914630;29;20036;-83
2022/10/04 01:07:45;;;;;;;5.43;2.63;;;;;;;10.00;96.11;100927.03;4943295;28;20038;-83
2022/10/04 01:10:18;;;;;;;7.80;2.45;;;;;;;9.99;96.21;100923.50;4992012;28;20057;-84
2022/10/04 01:13:00;;;;;;;5.93;2.70;;;;;;;10.08;96.30;100926.28;5013210;28;20032;-84
2022/10/04 01:15:32;;;;;;;5.07;2.40;;;;;;;10.13;95.53;100923.44;5013121;28;20038;-84
2022/10/04 01:18:19;;;;;;;6.65;2.05;;;;;;;10.04;96.02;100911.69;5013360;28;20059;-84
2022/10/04 01:20:47;;;;;;;6.68;2.70;;;;;;;9.96;96.52;100913.25;5004509;28;20049;-84
2022/10/04 01:23:30;;;;;;;6.78;2.40;;;;;;;9.93;96.72;100911.16;5011938;28;20474;-85
2022/10/04 01:25:55;;;;;;;7.25;2.47;;;;;;;9.97;96.49;100914.06;5011795;28;20580;-85
2022/10/04 01:28:22;;;;;;;4.57;2.08;;;;;;;9.99;96.14;100909.91;4994965;28;20026;-85
2022/10/04 01:30:49;;;;;;;7.10;2.33;;;;;;;10.06;96.06;100906.72;4998163;28;20030;-84
2022/10/04 01:33:14;;;;;;;6.55;2.72;;;;;;;10.16;94.94;100896.38;5016410;28;20045;-84
2022/10/04 01:35:40;;;;;;;5.82;2.00;;;;;;;10.10;95.02;100888.69;5016420;28;20033;-85
2022/10/04 01:38:06;;;;;;;5.10;2.03;;;;;;;10.10;95.60;100897.66;5016457;28;20056;-85
2022/10/04 01:40:34;;;;;;;7.47;2.50;;;;;;;9.98;95.38;100888.44;5016087;28;20022;-83
2022/10/04 01:43:04;;;;;;;7.63;2.45;;;;;;;9.92;95.66;100883.16;5015111;28;20033;-83
2022/10/04 01:45:39;;;;;;;6.38;2.55;;;;;;;9.89;96.42;100881.03;5013183;28;20071;-83
2022/10/04 01:48:09;;;;;;;7.55;2.97;;;;;;;9.92;96.07;100874.19;5011701;28;20033;-83
2022/10/04 01:50:54;;;;;;;7.07;3.05;;;;;;;9.90;96.21;100885.34;5011560;28;20510;-85
2022/10/04 01:53:29;;;;;;;5.88;2.92;;;;;;;9.91;96.18;100876.09;5012661;28;20076;-84
2022/10/04 01:56:08;;;;;;;5.75;2.50;;;;;;;9.92;96.34;100883.16;5011264;28;20544;-84
2022/10/04 01:58:45;;;;;;;4.80;2.30;;;;;;;9.94;96.44;100875.47;5011148;28;20030;-84
2022/10/04 02:01:16;;;;;;;;;;;;;;;9.99;96.02;100873.72;5011072;28;20056;-85
2022/10/04 02:03:51;;;;;;;6.85;2.67;;;;;;;10.04;95.01;100859.97;5011394;28;19909;-84
2022/10/04 02:06:19;;;;;;;5.80;2.30;;;;;;;10.08;94.50;100864.50;5012480;28;20028;-84
2022/10/04 02:08:48;;;;;;;7.25;2.80;;;;;;;10.15;94.30;100864.06;5012539;28;20048;-83
2022/10/04 02:11:20;;;;;;;6.90;2.90;;;;;;;10.13;93.85;100861.66;5012593;28;20076;-83
2022/10/04 02:13:49;;;;;;;6.28;2.67;;;;;;;10.15;93.75;100856.69;5011762;28;20105;-84
2022/10/04 02:16:16;;;;;;;7.00;2.78;;;;;;;10.20;93.77;100858.47;5010996;28;20429;-83
2022/10/04 02:18:43;;;;;;;5.65;2.05;;;;;;;10.22;93.64;100853.53;5011010;28;20482;-84
2022/10/04 02:21:11;;;;;;;6.15;2.42;;;;;;;10.26;93.07;100845.56;5010354;28;20507;-85
2022/10/04 02:23:39;;;;;;;5.78;2.10;;;;;;;10.28;92.96;100851.50;5011284;28;20171;-83
2022/10/04 02:26:09;;;;;;;6.38;2.40;;;;;;;10.26;93.12;100837.41;5012510;28;20164;-84
2022/10/04 02:28:36;;;;;;;6.75;2.40;;;;;;;10.26;93.20;100832.75;5010885;28;20037;-84
2022/10/04 02:33:51;;;;;;;8.43;2.78;;;;;;;10.30;93.03;100820.13;5012666;28;20048;-84
2022/10/04 02:36:18;;;;;;;5.43;2.40;;;;;;;10.33;92.92;100818.69;5011153;28;20045;-84
2022/10/04 02:39:14;;;;;;;5.07;2.90;;;;;;;10.39;92.58;100818.19;5012209;28;20030;-85
2022/10/04 02:41:47;;;;;;;9.32;2.63;;;;;;;10.46;92.16;100818.56;5010679;28;20475;-84
2022/10/04 02:44:27;;;;;;;5.00;2.42;;;;;;;10.60;91.37;100804.81;5011073;28;20140;-83
2022/10/04 02:47:15;;;;;;;5.18;2.40;;;;;;;10.49;91.87;100826.09;5013424;28;20026;-84
2022/10/04 02:49:47;;;;;;;8.25;2.55;;;;;;;10.45;92.08;100813.44;5014581;28;20115;-83
2022/10/04 02:52:30;;;;;;;5.93;2.50;;;;;;;10.43;92.28;100816.47;5014552;28;20108;-84
2022/10/04 02:55:03;;;;;;;9.60;2.92;;;;;;;10.39;92.45;100823.66;5015919;28;20099;-85
2022/10/04 02:57:32;;;;;;;7.10;2.47;;;;;;;10.36;92.71;100812.59;5015503;28;20033;-88
2022/10/04 03:00:12;;;;;;;8.05;2.83;;;;;;;10.37;92.46;100815.00;4998277;28;20029;-85
2022/10/04 03:02:38;;;;;;;9.93;3.13;;;;;;;10.50;92.02;100813.28;5014241;28;20021;-84
2022/10/04 03:05:09;;;;;;;5.18;2.35;;;;;;;10.35;92.45;100811.78;5016048;28;20022;-84
2022/10/04 03:07:38;;;;;;;7.03;2.90;;;;;;;10.29;93.12;100823.97;5015194;28;20029;-83
2022/10/04 03:10:10;;;;;;;8.13;2.90;;;;;;;10.27;93.11;100817.22;5015557;28;20056;-84
2022/10/04 03:12:37;;;;;;;8.13;3.85;;;;;;;10.24;93.18;100821.34;5014287;28;20026;-84
2022/10/04 03:15:09;;;;;;;8.65;3.63;;;;;;;10.23;92.97;100808.88;5014431;28;20478;-84
2022/10/04 03:17:35;;;;;;;6.32;2.83;;;;;;;10.19;93.52;100805.16;5013677;28;20034;-84
2022/10/04 03:20:03;;;;;;;7.97;2.80;;;;;;;10.14;93.54;100800.66;5013721;28;20502;-84
2022/10/04 03:22:29;;;;;;;8.63;3.00;;;;;;;10.15;93.81;100798.75;5015373;28;20518;-85
2022/10/04 03:24:57;;;;;;;8.55;3.00;;;;;;;10.14;93.55;100802.56;5015298;28;20022;-84
2022/10/04 03:27:30;;;;;;;8.38;3.28;;;;;;;10.12;93.77;100804.81;5015126;28;20029;-84
2022/10/04 03:29:58;;;;;;;8.90;3.17;;;;;;;10.12;93.92;100799.38;5013809;28;20030;-83
2022/10/04 03:32:24;;;;;;;7.60;3.45;;;;;;;10.15;93.55;100796.81;5013837;28;20052;-81
2022/10/04 03:35:02;;;;;;;8.20;3.08;;;;;;;10.16;93.65;100797.63;5015005;28;20030;-80
2022/10/04 03:37:33;;;;;;;6.50;3.20;;;;;;;10.16;93.33;100797.63;5015001;28;20028;-81
2022/10/04 03:40:02;;;;;;;8.20;3.33;;;;;;;10.16;93.59;100792.97;5015179;28;20061;-81
2022/10/04 03:42:35;;;;;;;6.70;3.20;;;;;;;10.11;93.89;100792.31;5013294;28;20052;-81
2022/10/04 03:45:07;;;;;;;6.03;2.75;;;;;;;10.10;93.86;100790.72;5014941;28;20105;-81
2022/10/04 03:47:37;;;;;;;9.15;2.95;;;;;;;10.08;93.82;100790.25;5011133;28;20088;-83
2022/10/04 03:50:15;;;;;;;8.05;3.67;;;;;;;10.07;94.29;100791.34;5014631;28;20033;-82
2022/10/04 03:52:55;;;;;;;7.72;3.17;;;;;;;10.11;93.73;100789.59;5014435;28;20037;-81
2022/10/04 03:55:30;;;;;;;6.40;2.95;;;;;;;10.05;93.82;100785.41;5014350;28;20022;-83
2022/10/04 03:57:57;;;;;;;7.07;3.13;;;;;;;10.13;93.51;100787.38;5013935;28;20024;-81
2022/10/04 04:00:23;;;;;;;8.60;3.40;;;;;;;10.07;93.81;100780.44;5014573;28;20080;-82
2022/10/04 04:03:02;;;;;;;6.80;3.25;;;;;;;10.08;93.52;100776.63;5014304;28;20026;-81
2022/10/04 04:05:38;;;;;;;7.38;3.25;;;;;;;10.03;94.09;100779.47;5014265;28;20034;-81
2022/10/04 04:08:11;;;;;;;8.73;2.95;;;;;;;9.95;94.46;100783.78;5014299;28;20030;-82
2022/10/04 04:10:43;;;;;;;7.18;3.17;;;;;;;9.93;94.14;100788.75;5014205;28;20084;-80
2022/10/04 04:13:33;;;;;;;7.60;2.97;;;;;;;9.98;94.20;100779.63;5013120;28;20087;-82
2022/10/04 04:16:04;;;;;;;7.95;3.33;;;;;;;9.98;94.08;100776.91;5012592;28;20034;-81
2022/10/04 04:18:33;;;;;;;7.38;3.20;;;;;;;9.95;94.02;100764.75;5013159;28;20030;-81
2022/10/04 04:21:03;;;;;;;7.22;3.35;;;;;;;9.95;94.39;100764.75;5014012;28;20053;-82
2022/10/04 04:23:35;;;;;;;8.25;3.35;;;;;;;9.94;94.37;100769.38;5013661;28;20435;-81
2022/10/04 04:26:20;;;;;;;10.85;3.63;;;;;;;9.96;94.11;100771.78;5014146;28;20061;-81
2022/10/04 04:28:49;;;;;;;10.07;3.35;;;;;;;9.94;94.04;100766.66;5013737;28;20037;-82
2022/10/04 04:31:32;;;;;;;13.68;4.45;;;;;;;9.98;93.73;100766.03;5014068;28;20032;-81
2022/10/04 04:34:00;;;;;;;8.45;3.03;;;;;;;10.08;92.82;100763.84;4994942;28;20025;-82
2022/10/04 04:36:39;;;;;;;10.23;3.10;;;;;;;10.03;93.53;100760.44;5014161;28;20053;-81
2022/10/04 04:39:32;;;;;;;10.15;2.88;;;;;;;10.03;93.58;100763.16;5013690;28;20026;-81
2022/10/04 04:42:17;;;;;;;6.53;2.53;;;;;;;10.02;93.40;100761.56;5013893;28;20136;-81
2022/10/04 04:44:46;;;;;;;9.40;3.72;;;;;;;10.01;93.29;100757.22;4995746;28;20072;-81
2022/10/04 04:47:37;;;;;;;8.30;2.50;;;;;;;9.99;93.58;100754.03;4995873;28;20042;-81
2022/10/04 04:50:07;;;;;;;7.07;2.80;;;;;;;9.99;93.27;100746.66;4995873;28;20505;-82
2022/10/04 04:52:34;;;;;;;7.88;2.50;;;;;;;10.05;93.11;100737.22;5013512;28;20490;-82
2022/10/04 04:55:03;;;;;;;6.10;2.75;;;;;;;10.04;92.86;100737.56;5013087;28;20026;-80
2022/10/04 04:57:32;;;;;;;7.63;2.60;;;;;;;10.05;92.82;100733.72;4995678;28;20056;-85
2022/10/04 05:00:00;;;;;;;5.50;2.58;;;;;;;10.01;93.08;100733.53;5013421;28;20049;-83
2022/10/04 05:02:27;;;;;;;8.25;2.80;;;;;;;9.95;93.07;100722.00;5013690;28;20029;-81
2022/10/04 05:05:14;;;;;;;7.60;2.85;;;;;;;9.93;93.02;100720.72;4996436;28;20056;-81
2022/10/04 05:07:42;;;;;;;8.85;2.83;;;;;;;9.98;92.83;100731.47;5014226;28;20036;-80
2022/10/04 05:10:31;;;;;;;8.23;2.97;;;;;;;10.08;92.10;100735.81;5012563;28;20104;-81
2022/10/04 05:12:59;;;;;;;5.05;2.42;;;;;;;9.93;92.71;100728.91;4995841;28;20045;-81
2022/10/04 05:15:27;;;;;;;5.60;2.50;;;;;;;10.11;92.13;100724.31;4995837;28;20033;-82
2022/10/04 05:17:54;;;;;;;7.22;2.92;;;;;;;10.06;91.52;100724.44;4995701;28;20026;-81
2022/10/04 05:20:19;;;;;;;8.43;3.17;;;;;;;9.94;92.63;100728.56;5001096;28;20050;-81
2022/10/04 05:22:48;;;;;;;8.15;2.42;;;;;;;10.02;92.30;100732.44;5011928;28;20388;-81
2022/10/04 05:25:29;;;;;;;5.50;2.50;;;;;;;9.90;92.79;100734.94;5013181;28;20053;-82
2022/10/04 05:27:55;;;;;;;6.78;2.53;;;;;;;9.96;92.84;100730.97;5012916;28;20048;-81
2022/10/04 05:30:58;;;;;;;6.32;2.97;;;;;;;9.95;92.38;100724.75;4995215;28;20490;-80
2022/10/04 05:33:38;;;;;;;4.97;2.22;;;;;;;9.78;93.26;100727.41;5014547;28;20025;-82
2022/10/04 05:36:10;;;;;;;6.13;2.65;;;;;;;9.71;93.69;100735.19;5013510;28;20069;-81
2022/10/04 05:38:42;;;;;;;5.82;2.30;;;;;;;9.80;92.85;100741.47;5013320;28;20026;-82
2022/10/04 05:41:25;;;;;;;6.97;2.40;;;;;;;9.70;93.70;100733.59;5013291;28;20029;-84
2022/10/04 05:43:51;;;;;;;22.38;2.92;;;;;;;9.74;93.59;100741.91;5013534;28;20549;-80
2022/10/04 05:46:21;;;;;;;5.00;2.20;;;;;;;9.65;93.82;100744.63;5012949;28;20026;-82
2022/10/04 05:48:54;;;;;;;5.45;2.30;;;;;;;9.69;94.98;100734.69;5013452;28;20033;-82
2022/10/04 05:51:29;;;;;;;5.32;2.85;;;;;;;9.76;94.03;100737.00;5012768;28;20025;-81
2022/10/04 05:54:00;;;;;;;5.85;1.90;;;;;;;9.77;92.64;100738.59;5005687;28;20036;-83
2022/10/04 05:56:40;;;;;;;6.22;3.05;;;;;;;9.69;93.54;100745.59;4994939;28;20069;-81
2022/10/04 05:59:43;;;;;;;5.75;2.10;;;;;;;9.84;92.93;100741.66;5007390;28;20117;-80
2022/10/04 06:02:30;;;;;;;7.18;2.20;;;;;;;9.75;93.50;100738.09;5012444;28;20025;-84
2022/10/04 06:05:25;;;;;;;6.47;2.22;;;;;;;9.92;92.75;100733.53;5012251;28;20026;-82
2022/10/04 06:08:07;;;;;;;4.75;2.33;;;;;;;10.00;93.13;100731.16;5010752;28;20080;-81
2022/10/04 06:11:03;;;;;;;6.00;1.90;;;;;;;10.07;92.23;100737.72;5012587;28;20334;-81
2022/10/04 06:13:58;;;;;;;5.63;2.20;;;;;;;9.92;92.35;100733.53;5010926;28;20101;-81
2022/10/04 06:16:30;;;;;;;4.22;1.88;;;;;;;9.85;93.29;100748.69;5012044;28;20443;-82
2022/10/04 06:19:32;;;;;;;7.57;2.47;;;;;;;9.73;93.37;100730.25;5012391;28;20033;-82
2022/10/04 06:22:17;;;;;;;5.60;2.28;;;;;;;9.78;92.83;100727.41;4993990;28;20043;-81
2022/10/04 06:24:57;;;;;;;6.18;1.80;;;;;;;9.75;93.06;100733.47;4996164;28;20112;-80
2022/10/04 06:27:40;;;;;;;5.78;1.90;;;;;;;9.76;93.09;100734.28;4979090;28;20527;-81
2022/10/04 06:30:14;;;;;;;4.63;1.83;;;;;;;9.74;92.90;100737.31;4980183;28;20038;-82
2022/10/04 06:33:08;;;;;;;6.13;2.10;;;;;;;9.71;92.90;100740.63;4997607;28;20039;-82
2022/10/04 06:36:05;;;;;;;6.32;1.70;;;;;;;9.75;92.67;100733.47;4979506;28;20029;-82
2022/10/04 06:39:05;;;;;;;5.60;2.10;;;;;;;9.97;91.32;100735.31;4979585;28;20042;-81
2022/10/04 06:41:55;;;;;;;5.30;2.55;;;;;;;9.93;91.51;100726.16;4964136;28;20034;-81
2022/10/04 06:44:30;;;;;;;6.93;2.03;;;;;;;9.84;91.67;100734.28;4997233;28;20026;-81
2022/10/04 06:47:12;;;;;;;6.22;1.80;;;;;;;10.01;91.25;100719.94;4996371;28;20030;-82
2022/10/04 06:50:02;;;;;;;3.58;1.90;;;;;;;9.92;91.27;100728.09;4978344;28;20022;-82
2022/10/04 06:52:42;;;;;;;6.18;2.00;;;;;;;10.04;90.63;100732.91;4963447;28;20084;-82
2022/10/04 06:55:29;;;;;;;6.68;2.22;;;;;;;10.05;90.52;100736.44;4978337;28;20030;-83
2022/10/04 06:58:07;;;;;;;5.30;2.05;;;;;;;10.04;90.15;100729.38;4996599;28;20038;-82
2022/10/04 07:00:57;;;;;;;6.30;2.10;;;;;;;10.04;90.26;100732.91;4996476;28;20030;-85
2022/10/04 07:03:32;;;;;;;6.70;1.88;;;;;;;10.14;89.61;100734.53;4996466;28;20026;-82
2022/10/04 07:06:04;;;;;;;11.32;2.28;;;;;;;10.15;89.51;100747.03;4976776;28;20096;-82
2022/10/04 07:08:46;;;;;;;4.28;1.73;;;;;;;10.26;88.93;100737.50;4978397;28;20066;-82
2022/10/04 07:11:23;;;;;;;9.82;2.13;;;;;;;10.27;89.01;100741.81;4997053;28;20049;-84
2022/10/04 07:14:02;;;;;;;4.05;1.85;;;;;;;10.33;88.53;100739.75;4980289;28;20037;-84
2022/10/04 07:16:36;;;;;;;5.20;1.95;;;;;;;10.35;88.23;100735.56;4978772;28;20030;-85
2022/10/04 07:19:36;;;;;;;13.73;3.28;;;;;;;10.47;87.74;100741.22;4979694;28;20026;-85
2022/10/04 07:22:11;;;;;;;7.88;2.40;;;;;;;10.50;86.74;100745.22;4981996;28;20045;-83
2022/10/04 07:24:48;;;;;;;6.05;2.00;;;;;;;10.59;87.09;100751.47;4999633;28;20037;-84
2022/10/04 07:27:23;;;;;;;6.47;2.38;;;;;;;10.59;87.00;100745.22;4998558;28;20061;-86
2022/10/04 07:29:57;;;;;;;7.38;2.05;;;;;;;10.78;85.57;100743.00;4964050;28;20038;-84
2022/10/04 07:32:28;;;;;;;4.05;1.77;;;;;;;10.74;85.58;100731.13;4996519;28;20041;-89
2022/10/04 07:34:56;;;;;;;7.55;2.30;;;;;;;10.78;85.24;100740.25;4996222;28;20081;-85
2022/10/04 07:37:25;;;;;;;5.55;2.15;;;;;;;10.79;85.94;100748.13;4997172;28;20030;-84
2022/10/04 07:39:56;;;;;;;7.13;1.70;;;;;;;10.94;85.75;100752.28;4995984;28;20022;-84
2022/10/04 07:42:31;;;;;;;7.22;1.90;;;;;;;10.83;85.95;100756.44;4979920;28;20031;-84
2022/10/04 07:45:32;;;;;;;5.13;2.08;;;;;;;10.89;85.14;100766.03;4996473;28;20026;-83
2022/10/04 07:48:12;;;;;;;8.05;2.30;;;;;;;11.00;84.59;100767.34;4996330;28;20034;-85
2022/10/04 07:50:48;;;;;;;5.68;2.22;;;;;;;11.01;84.77;100766.22;4996819;28;20041;-85
2022/10/04 07:53:21;;;;;;;6.95;1.88;;;;;;;11.10;84.44;100767.03;4978576;28;20034;-84
2022/10/04 07:55:58;;;;;;;6.28;2.28;;;;;;;11.02;85.59;100775.19;4996142;28;20042;-85
2022/10/04 07:59:03;;;;;;;6.47;2.20;;;;;;;11.18;84.68;100767.31;4996712;28;20101;-84
2022/10/04 08:01:48;;;;;;;6.03;2.20;;;;;;;11.04;84.53;100765.56;4996225;28;20030;-83
2022/10/04 08:04:29;;;;;;;8.35;2.63;;;;;;;11.09;84.84;100764.63;4992516;28;20487;-85
2022/10/04 08:07:02;;;;;;;5.35;1.83;;;;;;;11.21;84.96;100761.22;4995161;28;20026;-85
2022/10/04 08:09:44;;;;;;;6.50;2.92;;;;;;;11.34;84.38;100758.31;4977976;28;20026;-84
2022/10/04 08:12:27;;;;;;;9.73;3.08;;;;;;;11.67;82.96;100753.09;4977449;28;20129;-83
2022/10/04 08:15:34;;;;;;;6.22;2.40;;;;;;;11.49;83.67;100753.47;4995299;28;20098;-85
2022/10/04 08:18:20;;;;;;;7.03;2.30;;;;;;;11.51;84.03;100753.94;4978613;28;20027;-87
2022/10/04 08:21:08;;;;;;;6.65;2.38;;;;;;;11.39;84.40;100755.41;5008189;28;20125;-85
2022/10/04 08:23:40;;;;;;;8.02;2.40;;;;;;;11.53;83.79;100757.94;5004907;28;20053;-94
2022/10/04 08:26:37;;;;;;;11.23;2.67;;;;;;;11.53;83.31;100741.56;5009627;28;20022;-93
2022/10/04 08:29:43;;;;;;;5.72;2.53;;;;;;;11.49;83.63;100739.84;5031439;28;20078;-94
2022/10/04 08:32:49;;;;;;;5.85;2.22;;;;;;;11.75;82.77;100741.31;5032776;28;20037;-93
2022/10/04 08:35:32;;;;;;;9.30;2.60;;;;;;;11.64;83.07;100750.22;5055700;22;20015;-91
2022/10/04 08:38:10;;;;;;;6.57;1.95;;;;;;;11.66;83.38;100747.97;5001787;28;20441;-92
2022/10/04 08:41:00;;;;;;;7.97;1.70;;;;;;;11.65;83.57;100752.63;5003129;28;20049;-91
2022/10/04 08:43:55;;;;;;;7.13;2.78;;;;;;;12.37;80.70;100752.78;5006076;28;20033;-91
2022/10/04 08:46:51;;;;;;;4.40;1.80;;;;;;;12.45;79.94;100752.75;5014909;28;20026;-90
2022/10/04 08:49:53;;;;;;;6.25;2.42;;;;;;;12.57;78.34;100754.72;5020633;28;20030;-93
2022/10/04 08:52:48;;;;;;;8.40;3.13;;;;;;;12.60;79.13;100751.34;5001761;28;20453;-92
2022/10/04 08:55:19;;;;;;;7.57;2.00;;;;;;;12.54;79.03;100755.41;4996786;28;20030;-92
2022/10/04 08:58:04;;;;;;;4.90;1.98;;;;;;;12.55;79.41;100759.72;5018151;28;20038;-92
2022/10/04 09:00:49;;;;;;;5.60;2.17;;;;;;;13.07;77.72;100753.84;5020145;28;20408;-92
2022/10/04 09:03:48;;;;;;;4.97;1.77;;;;;;;13.11;77.20;100750.13;5018612;28;20022;-91
2022/10/04 09:06:54;;;;;;;5.78;1.95;;;;;;;13.51;75.37;100746.84;5018669;28;20109;-91
2022/10/04 09:09:59;;;;;;;6.00;2.25;;;;;;;13.22;75.21;100747.78;5000083;28;20449;-91
2022/10/04 09:12:49;;;;;;;5.25;2.08;;;;;;;13.33;74.82;100748.97;5007479;28;20037;-91
2022/10/04 09:15:33;;;;;;;7.03;1.90;;;;;;;13.37;73.78;100747.13;5004237;28;20447;-93
2022/10/04 09:21:12;;;;;;;7.82;1.88;;;;;;;13.51;73.39;100725.75;5014671;28;20037;-91
2022/10/04 09:24:23;;;;;;;6.32;2.15;;;;;;;13.67;72.79;100725.09;4999607;28;20060;-91
2022/10/04 09:27:43;;;;;;;6.10;1.92;;;;;;;13.90;72.59;100723.50;5001139;28;20033;-91
2022/10/04 09:30:51;;;;;;;5.28;1.67;;;;;;;13.88;71.23;100723.03;5000189;28;20097;-95
2022/10/04 09:34:06;;;;;;;;;;;;;;;;;;;;;
2022/10/04 09:36:39;;;;;;;8.52;1.80;;;;;;;13.88;71.04;100714.81;5019460;28;20132;-91
2022/10/04 09:39:43;;;;;;;5.43;1.88;;;;;;;13.84;70.57;100711.97;5003057;28;20461;-91
2022/10/04 09:46:15;;;;;;;6.18;1.98;;;;;;;14.15;69.22;100697.72;5021552;28;20037;-93
2022/10/04 09:49:13;;;;;;;5.53;1.70;;;;;;;14.14;70.37;100709.00;4903812;29;20127;-90
2022/10/04 09:52:21;;;;;;;3.95;1.70;;;;;;;14.23;69.86;100706.94;4908684;29;20091;-91
2022/10/04 09:54:55;;;;;;;5.13;1.70;;;;;;;14.71;68.79;100700.56;4924642;29;20139;-90
2022/10/04 09:57:40;;;;;;;8.98;2.00;;;;;;;14.58;68.73;100704.47;4920382;28;20182;-94
2022/10/04 10:00:38;;;;;;;4.80;1.50;;;;;;;14.70;68.54;100704.44;5024373;28;20045;-93
2022/10/04 10:03:32;;;;;;;6.65;1.85;;;;;;;14.72;68.65;100701.34;5004010;28;20021;-91
2022/10/04 10:06:13;;;;;;;4.75;2.03;;;;;;;14.87;68.96;100699.81;5004089;28;20029;-92
2022/10/04 10:09:00;;;;;;;4.65;2.05;;;;;;;14.85;67.88;100694.69;5019193;28;20037;-88
2022/10/04 10:14:55;;;;;;;4.10;1.70;;;;;;;14.97;68.13;100693.84;5016006;28;20500;-91
2022/10/04 10:17:22;;;;;;;4.57;1.60;;;;;;;15.00;68.91;100680.22;5000399;28;20036;-89
2022/10/04 10:20:16;;;;;;;;;;;;;;;;;;;;;
2022/10/04 10:23:52;;;;;;;;;;;;;;;;;;;;;
2022/10/04 10:26:46;;;;;;;3.33;1.42;;;;;;;15.13;67.84;100691.13;4920865;29;20122;-90
2022/10/04 10:29:17;;;;;;;5.13;1.75;;;;;;;15.10;67.58;100698.09;4917383;29;20020;-91
2022/10/04 10:32:44;;;;;;;4.68;2.15;;;;;;;14.95;67.48;100694.19;5008149;28;20049;-90
2022/10/04 10:35:19;;;;;;;5.97;1.90;;;;;;;14.92;68.71;100685.84;4976604;28;20030;-92
2022/10/04 10:38:23;;;;;;;4.57;1.88;;;;;;;14.94;68.69;100695.31;4979487;28;20030;-93
2022/10/04 10:41:21;;;;;;;4.35;1.90;;;;;;;14.94;68.31;100691.78;4978740;28;20045;-91
2022/10/04 10:44:07;;;;;;;4.05;1.80;;;;;;;15.07;68.23;100689.78;4979217;28;20030;-88
2022/10/04 10:47:10;;;;;;;3.90;1.80;;;;;;;15.24;68.16;100687.50;4980502;28;20034;-93
2022/10/04 10:50:09;;;;;;;7.15;1.90;;;;;;;15.39;67.03;100690.63;4995515;28;20409;-92
2022/10/04 10:52:53;;;;;;;4.05;1.65;;;;;;;15.31;67.23;100686.91;4978071;28;20133;-89
2022/10/04 10:55:54;;;;;;;4.90;2.17;;;;;;;15.43;66.65;100688.75;4977352;28;20030;-91
2022/10/04 10:59:04;;;;;;;7.05;2.00;;;;;;;15.42;67.16;100684.44;4926162;28;20121;-90
2022/10/04 11:02:03;;;;;;;5.70;1.60;;;;;;;15.48;66.09;100680.28;4893895;28;20411;-88
2022/10/04 11:04:53;;;;;;;3.58;1.50;;;;;;;15.66;66.52;100678.81;4977983;28;20034;-93
2022/10/04 11:07:29;;;;;;;5.05;1.55;;;;;;;15.46;66.07;100674.34;4985273;28;20343;-91
2022/10/04 11:10:31;;;;;;;4.15;1.67;;;;;;;15.49;65.59;100671.69;4984977;28;20046;-91
2022/10/04 11:13:25;;;;;;;8.35;3.58;;;;;;;15.73;65.89;100667.19;4985316;28;20462;-94
2022/10/04 11:16:12;;;;;;;8.45;1.80;;;;;;;15.98;65.19;100667.78;4983301;28;20354;-92
2022/10/04 11:19:17;;;;;;;5.05;1.80;;;;;;;15.74;65.94;100672.31;4987713;28;20442;-93
2022/10/04 11:22:14;;;;;;;6.72;2.08;;;;;;;15.95;64.42;100667.31;4984557;28;20061;-92
2022/10/04 11:25:33;;;;;;;;;;;;;;;;;;;;;
2022/10/04 11:28:45;;;;;;;4.78;1.63;;;;;;;16.01;64.45;100667.06;4996491;28;20050;-90
2022/10/04 11:31:53;;;;;;;4.13;1.30;;;;;;;16.09;63.53;100660.56;4997481;28;20022;-86
2022/10/04 11:34:50;;;;;;;5.22;1.80;;;;;;;16.48;63.33;100659.47;5000621;28;20022;-92
2022/10/04 11:37:53;;;;;;;3.30;1.30;;;;;;;16.56;63.11;100649.41;5011869;28;20102;-92
2022/10/04 11:40:49;;;;;;;3.92;1.60;;;;;;;16.37;61.96;100641.16;5014504;28;20044;-92
2022/10/04 11:43:54;;;;;;;4.43;1.50;;;;;;;16.28;62.95;100649.59;5029794;28;20025;-89
2022/10/04 11:47:02;;;;;;;6.45;1.88;;;;;;;16.54;62.76;100647.03;5019189;28;20032;-92
2022/10/04 11:50:07;;;;;;;4.13;1.92;;;;;;;16.28;62.74;100643.31;5010815;28;20034;-91
2022/10/04 11:58:01;;;;;;;5.03;1.92;;;;;;;16.32;63.03;100634.00;5053864;28;20045;-94
2022/10/04 12:00:44;;;;;;;;;;;;;;;16.36;61.67;100648.59;5037195;28;20037;-89
2022/10/04 12:03:18;;;;;;;5.15;1.70;;;;;;;16.27;61.93;100645.25;5045304;28;19917;-94
2022/10/04 12:06:02;;;;;;;3.85;1.58;;;;;;;16.32;61.52;100650.50;5043437;28;20133;-93
2022/10/04 12:08:36;;;;;;;5.78;1.88;;;;;;;16.32;60.52;100647.75;5048977;28;20033;-94
2022/10/04 12:11:15;;;;;;;4.75;1.75;;;;;;;16.48;61.23;100642.19;5055269;28;20013;-94
2022/10/04 12:14:00;;;;;;;3.50;1.38;;;;;;;16.48;60.47;100637.47;5035534;28;20095;-93
2022/10/04 12:17:14;;;;;;;4.38;1.60;;;;;;;16.67;60.66;100633.16;5032519;28;20056;-93
2022/10/04 12:20:27;;;;;;;3.80;1.35;;;;;;;16.84;60.46;100624.47;5036786;28;20057;-92
2022/10/04 12:23:44;;;;;;;4.07;1.50;;;;;;;16.75;60.21;100619.19;5033106;28;20062;-95
2022/10/04 12:26:51;;;;;;;2.92;1.40;;;;;;;17.04;59.73;100609.50;5024462;28;20033;-91
2022/10/04 12:30:29;;;;;;;3.72;1.30;;;;;;;17.42;59.21;100610.50;5049405;28;20032;-95
2022/10/04 12:33:16;;;;;;;4.57;1.27;;;;;;;17.24;58.51;100609.44;5025823;28;20033;-95
2022/10/04 12:36:25;;;;;;;3.15;1.35;;;;;;;17.20;58.39;100595.63;5044126;28;20095;-95
2022/10/04 12:39:13;;;;;;;3.55;1.23;;;;;;;17.12;58.17;100589.19;4985943;28;20041;-93
2022/10/04 12:42:18;;;;;;;4.10;1.65;;;;;;;17.21;58.00;100596.41;5027510;28;20124;-88
2022/10/04 12:45:12;;;;;;;3.92;1.60;;;;;;;16.96;57.83;100585.75;5035054;28;20029;-92
2022/10/04 12:48:04;;;;;;;5.55;1.60;;;;;;;17.08;57.74;100579.28;5027138;28;20026;-94
2022/10/04 12:50:35;;;;;;;3.13;1.20;;;;;;;17.47;56.59;100579.94;5046399;28;20029;-96
2022/10/04 13:04:35;;;;;;;3.43;1.23;;;;;;;17.82;54.81;100574.19;5096755;27;20407;-90
2022/10/04 13:07:32;;;;;;;4.68;1.52;;;;;;;17.87;54.69;100562.84;5094974;28;20079;-95
2022/10/04 13:10:31;;;;;;;5.38;1.42;;;;;;;17.96;54.74;100568.06;5093787;28;20035;-93
2022/10/04 13:13:10;;;;;;;4.07;1.60;;;;;;;18.20;53.99;100564.03;5094385;28;20127;-93